Time;durP1;ratioP1;P1;durP2;ratioP2;P2;SDS_P1;SDS_P2;PMS_P1;PMS_P2;Temp;Humidity;BMP_temperature;BMP_pressure;BME280_temperature;BME280_humidity;BME280_pressure;Samples;Min_cycle;Max_cycle;Signal;HPM_P1;HPM_P2
2024/01/09 00:04:37;;;;;;;11.05;5.45;;;;;;;7.54;80.29;100744.84;10460708;27;96539;-79
2024/01/09 00:09:41;;;;;;;8.07;4.35;;;;;;;7.51;80.81;100755.41;10460151;27;96801;-79
2024/01/09 00:14:46;;;;;;;9.48;4.90;;;;;;;7.47;81.54;100757.19;10460159;27;96789;-79
2024/01/09 00:19:50;;;;;;;9.00;4.60;;;;;;;7.51;81.73;100750.16;10459671;27;98641;-79
2024/01/09 00:24:54;;;;;;;7.97;5.25;;;;;;;7.53;81.61;100751.84;10460136;27;96936;-79
2024/01/09 00:29:59;;;;;;;8.25;4.55;;;;;;;7.54;81.58;100750.09;10459914;27;97167;-79
2024/01/09 00:35:02;;;;;;;;;;;;;;;7.40;82.00;100745.13;10459976;27;96900;-80
2024/01/09 00:40:09;;;;;;;7.82;4.20;;;;;;;7.43;82.33;100754.66;10459644;27;96718;-80
2024/01/09 00:45:14;;;;;;;8.43;4.18;;;;;;;7.33;83.34;100750.50;10458094;27;97243;-81
2024/01/09 00:50:18;;;;;;;8.05;4.68;;;;;;;7.31;83.62;100755.75;10458395;27;96940;-81
2024/01/09 00:55:21;;;;;;;7.35;4.40;;;;;;;7.28;84.46;100755.81;10458072;27;97124;-83
2024/01/09 01:00:26;;;;;;;7.13;4.05;;;;;;;7.19;84.67;100747.25;10458842;27;97429;-82
2024/01/09 01:05:33;;;;;;;8.02;4.40;;;;;;;7.18;85.61;100746.38;10458748;27;96836;-82
2024/01/09 01:10:39;;;;;;;9.95;4.97;;;;;;;7.16;85.78;100737.72;10457388;27;97334;-82
2024/01/09 01:15:45;;;;;;;7.45;4.15;;;;;;;7.15;85.95;100754.28;10458282;27;96723;-82
2024/01/09 01:20:49;;;;;;;8.55;4.28;;;;;;;7.15;85.98;100749.06;10457385;27;96713;-81
2024/01/09 01:25:52;;;;;;;8.85;4.20;;;;;;;7.10;86.56;100742.19;10457859;27;96730;-82
2024/01/09 01:30:57;;;;;;;7.43;3.85;;;;;;;7.13;86.36;100734.31;10457767;27;96685;-82
2024/01/09 01:36:16;;;;;;;8.30;3.85;;;;;;;7.13;86.63;100734.31;11207417;22;98476;-82
2024/01/09 01:41:20;;;;;;;7.70;3.90;;;;;;;7.08;86.99;100729.13;10282932;28;97442;-81
2024/01/09 01:46:25;;;;;;;6.05;3.65;;;;;;;7.06;87.25;100722.22;10267740;28;96811;-81
2024/01/09 01:51:28;;;;;;;6.32;3.35;;;;;;;7.03;87.79;100717.88;10291409;28;96689;-81
2024/01/09 01:56:33;;;;;;;7.28;3.47;;;;;;;7.11;87.23;100715.13;10291481;28;96621;-81
2024/01/09 02:01:39;;;;;;;6.90;3.70;;;;;;;7.10;87.02;100721.25;10290630;28;96821;-81
2024/01/09 02:06:43;;;;;;;6.50;3.30;;;;;;;7.13;86.63;100726.44;10290897;28;96758;-80
2024/01/09 02:11:49;;;;;;;6.40;3.67;;;;;;;7.15;86.79;100716.78;10291779;28;97172;-81
2024/01/09 02:16:55;;;;;;;6.03;3.40;;;;;;;7.14;86.42;100726.41;10278689;28;96815;-80
2024/01/09 02:21:58;;;;;;;6.35;3.25;;;;;;;7.17;86.54;100720.25;10249668;28;96887;-80
2024/01/09 02:27:19;;;;;;;5.90;3.67;;;;;;;7.19;86.74;100719.34;10248807;28;97428;-80
2024/01/09 02:32:25;;;;;;;4.95;3.33;;;;;;;7.20;86.07;100717.59;10249882;28;96627;-80
2024/01/09 02:37:29;;;;;;;7.68;3.38;;;;;;;7.21;86.46;100724.53;10248498;28;96917;-80
2024/01/09 02:42:32;;;;;;;6.03;2.97;;;;;;;7.20;86.27;100721.06;10249608;28;96874;-80
2024/01/09 02:47:37;;;;;;;4.88;2.97;;;;;;;7.21;86.07;100722.78;10249520;28;96625;-80
2024/01/09 02:52:41;;;;;;;4.93;3.05;;;;;;;7.26;85.69;100722.69;10249618;28;97484;-80
2024/01/09 02:57:45;;;;;;;5.82;3.33;;;;;;;7.25;85.63;100726.22;10249034;28;96734;-80
2024/01/09 03:02:50;;;;;;;5.70;2.78;;;;;;;7.27;85.71;100720.06;10249490;28;96862;-80
2024/01/09 03:07:53;;;;;;;6.32;2.90;;;;;;;7.30;85.35;100719.13;10249068;28;96926;-80
2024/01/09 03:12:57;;;;;;;4.03;2.78;;;;;;;7.36;85.25;100719.00;10249003;28;96675;-79
2024/01/09 03:18:04;;;;;;;8.02;3.75;;;;;;;7.33;85.08;100708.59;10247708;28;97597;-80
2024/01/09 03:48:39;;;;;;;5.35;2.88;;;;;;;7.36;85.41;100678.00;10411689;22;98743;-80
2024/01/09 03:53:43;;;;;;;6.85;3.58;;;;;;;7.32;85.61;100667.63;10335062;28;97360;-80
2024/01/09 03:58:46;;;;;;;5.10;2.95;;;;;;;7.25;86.11;100652.94;10336498;28;96850;-79
2024/01/09 04:03:51;;;;;;;4.38;2.38;;;;;;;7.28;85.84;100640.66;10336206;28;96889;-80
2024/01/09 04:08:54;;;;;;;4.40;3.15;;;;;;;7.27;85.75;100648.53;10335810;28;96605;-80
2024/01/09 04:13:58;;;;;;;6.10;2.75;;;;;;;7.28;85.88;100645.03;10334409;28;97127;-80
2024/01/09 04:19:02;;;;;;;3.92;2.67;;;;;;;7.28;85.64;100626.69;10334916;28;96886;-80
2024/01/09 04:24:06;;;;;;;5.35;2.97;;;;;;;7.31;85.16;100631.84;10334736;28;97051;-80
2024/01/09 04:29:09;;;;;;;6.93;3.20;;;;;;;7.30;84.94;100633.63;10334911;28;96651;-80
2024/01/09 04:34:14;;;;;;;5.65;3.10;;;;;;;7.26;85.26;100626.72;10335107;28;96960;-79
2024/01/09 04:39:18;;;;;;;6.13;3.65;;;;;;;7.29;84.99;100616.19;10335263;28;96750;-79
2024/01/09 04:44:21;;;;;;;5.05;2.97;;;;;;;7.30;85.40;100603.97;10323736;28;98848;-79
2024/01/09 04:49:26;;;;;;;6.05;3.13;;;;;;;7.25;85.08;100608.44;10402329;28;96800;-79
2024/01/09 04:54:29;;;;;;;8.57;3.13;;;;;;;7.23;85.00;100602.38;10375910;28;96765;-79
2024/01/09 04:59:33;;;;;;;7.07;2.63;;;;;;;7.21;85.15;100606.78;10375819;28;96960;-79
2024/01/09 05:04:38;;;;;;;7.40;3.20;;;;;;;7.25;84.87;100598.81;10373982;28;97024;-79
2024/01/09 05:09:41;;;;;;;5.32;3.08;;;;;;;7.16;85.27;100598.16;10374411;28;96756;-79
2024/01/09 05:14:44;;;;;;;4.97;2.78;;;;;;;7.17;84.93;100599.88;10374948;28;97065;-79
2024/01/09 05:19:49;;;;;;;6.03;3.20;;;;;;;7.15;85.00;100593.78;10374786;28;96791;-80
2024/01/09 05:24:57;;;;;;;4.47;2.58;;;;;;;7.12;85.14;100596.47;10374408;28;96765;-79
2024/01/09 05:30:01;;;;;;;5.45;3.00;;;;;;;7.14;85.00;100589.47;10374558;28;96786;-79
2024/01/09 05:35:08;;;;;;;4.60;2.88;;;;;;;7.12;85.06;100601.72;10374655;28;97069;-79
2024/01/09 05:40:12;;;;;;;5.22;2.90;;;;;;;7.13;85.18;100600.84;10375025;28;96726;-79
2024/01/09 05:45:16;;;;;;;9.40;3.47;;;;;;;7.12;84.92;100588.63;10373365;28;96798;-79
2024/01/09 05:50:21;;;;;;;4.65;2.78;;;;;;;7.12;85.07;100594.75;10374049;28;97264;-79
2024/01/09 05:55:24;;;;;;;5.88;3.00;;;;;;;7.16;84.65;100590.31;10372648;28;96665;-79
2024/01/09 06:00:28;;;;;;;6.75;3.50;;;;;;;7.13;84.86;100600.84;10372255;28;97193;-79
2024/01/09 06:05:32;;;;;;;5.00;2.95;;;;;;;7.18;84.65;100614.69;10373251;28;96716;-79
2024/01/09 06:10:36;;;;;;;5.28;2.95;;;;;;;7.15;84.93;100613.00;10373233;28;96747;-79
2024/01/09 06:15:39;;;;;;;5.97;3.45;;;;;;;7.16;84.72;100606.00;10372773;28;96669;-79
2024/01/09 06:20:44;;;;;;;7.60;3.70;;;;;;;7.12;84.58;100599.09;10373242;28;96743;-79
2024/01/09 06:25:48;;;;;;;5.90;3.05;;;;;;;7.18;84.58;100602.44;10373220;28;96811;-79
2024/01/09 06:30:51;;;;;;;5.47;3.40;;;;;;;7.20;84.49;100610.28;10372884;28;96828;-79
2024/01/09 06:35:56;;;;;;;6.07;3.53;;;;;;;7.28;83.82;100618.84;10375643;28;96746;-79
2024/01/09 06:41:00;;;;;;;4.30;2.70;;;;;;;7.30;83.81;100625.78;10413821;28;96744;-79
2024/01/09 06:46:03;;;;;;;6.20;3.20;;;;;;;7.33;83.58;100630.06;10412173;28;97175;-79
2024/01/09 06:51:08;;;;;;;4.93;2.72;;;;;;;7.38;83.39;100628.22;10382027;28;97164;-79
2024/01/09 06:56:11;;;;;;;4.60;3.05;;;;;;;7.35;83.61;100636.16;10371438;28;96789;-79
2024/01/09 07:01:15;;;;;;;4.95;3.00;;;;;;;7.41;83.42;100633.38;10371707;28;96737;-79
2024/01/09 07:06:22;;;;;;;6.43;3.08;;;;;;;7.41;83.40;100630.78;10371069;28;97078;-79
2024/01/09 07:11:26;;;;;;;6.07;3.42;;;;;;;7.44;83.42;100621.09;10370331;28;97252;-79
2024/01/09 07:16:29;;;;;;;6.22;3.60;;;;;;;7.47;83.04;100633.28;10371015;28;96856;-79
2024/01/09 07:21:34;;;;;;;5.18;2.90;;;;;;;7.45;83.26;100638.53;10371237;28;96924;-79
2024/01/09 07:26:40;;;;;;;5.85;3.10;;;;;;;7.50;82.94;100648.91;10370557;28;97103;-79
2024/01/09 07:31:44;;;;;;;5.57;3.10;;;;;;;7.55;83.10;100644.44;10404364;28;97097;-79
2024/01/09 07:36:48;;;;;;;5.32;3.05;;;;;;;7.51;82.80;100648.88;10382517;28;96778;-80
2024/01/09 07:41:52;;;;;;;4.97;2.65;;;;;;;7.54;82.25;100650.59;10370283;28;96984;-79
2024/01/09 07:46:56;;;;;;;6.05;2.97;;;;;;;7.51;82.66;100664.59;10370217;28;96923;-79
2024/01/09 07:52:00;;;;;;;8.02;2.97;;;;;;;7.55;82.71;100668.88;10370631;28;97057;-79
2024/01/09 07:57:04;;;;;;;3.95;2.70;;;;;;;7.53;82.37;100673.28;10370541;28;97145;-79
2024/01/09 08:02:20;;;;;;;5.70;3.05;;;;;;;7.60;82.21;100674.88;10370043;28;96791;-79
2024/01/09 08:07:25;;;;;;;5.00;2.85;;;;;;;7.65;81.68;100674.75;10370083;28;96590;-80
2024/01/09 08:12:28;;;;;;;4.35;2.47;;;;;;;7.62;81.96;100678.34;10370574;28;97192;-79
2024/01/09 08:17:32;;;;;;;5.60;3.08;;;;;;;7.68;81.48;100677.34;10368916;28;96875;-79
2024/01/09 08:22:37;;;;;;;4.20;2.75;;;;;;;7.67;81.47;100680.84;10408878;28;96718;-79
2024/01/09 08:27:40;;;;;;;3.53;2.63;;;;;;;7.73;81.73;100691.19;10416467;28;96740;-79
2024/01/09 08:32:43;;;;;;;6.20;3.17;;;;;;;7.70;81.08;100697.34;10390049;28;96962;-79
2024/01/09 08:37:48;;;;;;;5.38;2.95;;;;;;;7.72;81.15;100702.56;10375834;28;97181;-79
2024/01/09 08:42:52;;;;;;;5.47;2.92;;;;;;;7.71;81.03;100695.59;10375961;28;96660;-79
2024/01/09 08:47:55;;;;;;;5.82;3.30;;;;;;;7.79;80.81;100706.78;10375290;28;97388;-79
2024/01/09 08:53:00;;;;;;;4.80;2.78;;;;;;;7.80;81.03;100729.47;10376014;28;97264;-79
2024/01/09 08:58:04;;;;;;;4.05;2.78;;;;;;;7.78;80.74;100732.13;10376118;28;96640;-79
2024/01/09 09:03:07;;;;;;;5.57;2.65;;;;;;;7.83;80.82;100727.66;10375929;28;96761;-79
2024/01/09 09:08:13;;;;;;;5.55;2.72;;;;;;;7.90;80.45;100729.25;10375082;28;96789;-79
2024/01/09 09:13:16;;;;;;;3.97;2.72;;;;;;;7.93;80.22;100736.16;10375151;28;96756;-80
2024/01/09 09:18:20;;;;;;;4.82;2.55;;;;;;;7.97;80.21;100746.56;10387810;28;96707;-79
2024/01/09 09:23:25;;;;;;;4.75;2.80;;;;;;;8.03;80.23;100749.94;10390727;28;96756;-79
2024/01/09 09:28:28;;;;;;;5.00;2.53;;;;;;;8.04;79.67;100747.28;10373905;28;96758;-79
2024/01/09 09:33:47;;;;;;;6.13;2.80;;;;;;;8.02;79.51;100756.94;10373226;28;96786;-79
2024/01/09 09:38:53;;;;;;;6.38;3.15;;;;;;;8.06;79.90;100760.38;10389324;28;97244;-80
2024/01/09 09:43:59;;;;;;;7.13;3.10;;;;;;;8.11;79.79;100762.00;10373990;28;96558;-79
2024/01/09 09:49:03;;;;;;;5.00;3.30;;;;;;;8.16;79.54;100770.63;10373431;28;97062;-80
2024/01/09 09:54:11;;;;;;;6.53;3.00;;;;;;;8.22;79.87;100780.13;10374532;28;96635;-79
2024/01/09 09:59:16;;;;;;;3.70;2.50;;;;;;;8.22;79.47;100774.88;10373522;28;96702;-79
2024/01/09 10:04:30;;;;;;;5.53;2.67;;;;;;;8.29;79.33;100769.44;10373750;28;97032;-79
2024/01/09 10:09:37;;;;;;;3.03;2.42;;;;;;;8.27;78.57;100776.50;10372005;28;96704;-79
2024/01/09 10:15:02;;;;;;;3.50;2.60;;;;;;;8.36;78.43;100780.69;10372968;28;96775;-80
2024/01/09 10:20:08;;;;;;;;;;;;;;;8.41;78.08;100779.66;10373581;28;97155;-79
2024/01/09 10:25:15;;;;;;;5.70;2.93;;;;;;;8.48;77.88;100783.03;10371114;28;97932;-79
2024/01/09 10:30:21;;;;;;;4.28;2.53;;;;;;;8.43;77.69;100784.88;10347398;28;96743;-80
2024/01/09 10:35:25;;;;;;;4.30;2.78;;;;;;;8.45;77.94;100778.69;10372586;28;96602;-79
2024/01/09 10:40:30;;;;;;;4.00;2.80;;;;;;;8.62;77.65;100773.09;10372422;28;96950;-79
2024/01/09 10:45:33;;;;;;;3.75;2.83;;;;;;;8.68;77.46;100772.91;10371536;28;96799;-80
2024/01/09 10:50:37;;;;;;;7.28;3.70;;;;;;;8.75;77.36;100754.38;10372030;28;96573;-80
2024/01/09 10:55:44;;;;;;;4.68;2.58;;;;;;;8.80;77.46;100762.13;10371969;28;97003;-79
2024/01/09 11:00:48;;;;;;;4.60;2.78;;;;;;;8.89;76.97;100751.41;10370668;28;96705;-80
2024/01/09 11:05:55;;;;;;;7.30;3.60;;;;;;;8.86;76.88;100752.34;10371023;28;96800;-79
2024/01/09 11:11:00;;;;;;;4.82;3.25;;;;;;;8.92;76.56;100759.19;10371298;28;96666;-80
2024/01/09 11:16:07;;;;;;;5.57;3.05;;;;;;;8.87;77.85;100775.06;10370508;28;96690;-79
2024/01/09 11:21:11;;;;;;;5.57;3.03;;;;;;;8.89;77.00;100752.28;10371155;28;96646;-79
2024/01/09 11:26:16;;;;;;;4.38;3.00;;;;;;;8.91;76.67;100747.00;10370967;28;97266;-79
2024/01/09 11:31:21;;;;;;;4.07;2.65;;;;;;;8.90;75.91;100746.13;10371031;28;97415;-79
2024/01/09 11:36:27;;;;;;;6.63;3.95;;;;;;;8.93;76.58;100737.31;10371613;28;96777;-79
2024/01/09 11:41:37;;;;;;;5.97;3.10;;;;;;;9.01;75.80;100732.72;10329405;28;96774;-79
2024/01/09 11:46:41;;;;;;;5.15;3.08;;;;;;;9.01;76.42;100727.47;10329095;28;96794;-80
2024/01/09 11:51:44;;;;;;;5.07;2.78;;;;;;;9.13;76.08;100725.41;10328379;28;96684;-80
2024/01/09 11:56:50;;;;;;;5.30;3.25;;;;;;;9.16;75.31;100713.94;10361441;28;96745;-80
2024/01/09 12:01:53;;;;;;;;;;;;;;;9.24;75.42;100703.28;10378342;28;97453;-80
2024/01/09 12:06:57;;;;;;;6.03;3.10;;;;;;;9.20;76.11;100698.97;10377454;28;97123;-79
2024/01/09 12:12:01;;;;;;;4.63;2.83;;;;;;;9.10;76.41;100690.50;10377348;28;96948;-79
2024/01/09 12:17:19;;;;;;;4.55;2.97;;;;;;;9.17;75.76;100691.19;10377001;28;96619;-79
2024/01/09 12:22:23;;;;;;;5.32;2.80;;;;;;;9.24;76.30;100684.91;10376748;28;96711;-80
2024/01/09 12:27:30;;;;;;;3.40;2.63;;;;;;;9.24;75.79;100671.78;10376745;28;96783;-79
2024/01/09 12:32:33;;;;;;;3.63;2.72;;;;;;;9.24;75.95;100641.13;10335252;28;97477;-80
2024/01/09 12:37:37;;;;;;;7.75;3.20;;;;;;;9.21;76.26;100640.31;10352102;28;96758;-80
2024/01/09 12:42:42;;;;;;;7.88;3.22;;;;;;;9.33;76.90;100637.38;10375291;28;96763;-80
2024/01/09 12:47:45;;;;;;;5.82;3.08;;;;;;;9.33;76.81;100629.50;10375515;28;96763;-80
2024/01/09 12:52:48;;;;;;;6.13;3.15;;;;;;;9.30;77.36;100634.81;10376082;28;96581;-79
2024/01/09 12:57:55;;;;;;;5.40;3.70;;;;;;;9.40;77.19;100629.28;10375528;28;96790;-80
2024/01/09 13:02:58;;;;;;;6.93;3.40;;;;;;;9.31;76.91;100623.44;10375131;28;96918;-79
2024/01/09 13:08:02;;;;;;;5.97;3.60;;;;;;;9.36;77.23;100629.41;10375169;28;96851;-80
2024/01/09 13:13:07;;;;;;;5.38;3.53;;;;;;;9.33;77.51;100609.34;10375262;28;96785;-79
2024/01/09 13:18:10;;;;;;;6.75;3.95;;;;;;;9.35;77.98;100593.53;10375869;28;97461;-80
2024/01/09 13:23:17;;;;;;;6.68;3.90;;;;;;;9.34;77.80;100562.94;10374427;28;96882;-80
2024/01/09 13:28:25;;;;;;;6.03;3.33;;;;;;;9.35;77.88;100555.00;10372263;28;97179;-80
2024/01/09 13:33:28;;;;;;;;;;;;;;;9.31;77.75;100550.75;10373895;28;97110;-79
2024/01/09 13:38:31;;;;;;;4.72;2.92;;;;;;;9.29;78.02;100572.72;10374206;28;97144;-80
2024/01/09 13:43:38;;;;;;;5.75;3.10;;;;;;;9.17;79.11;100575.66;10374552;28;97153;-80
2024/01/09 13:48:42;;;;;;;4.15;2.92;;;;;;;9.09;78.14;100563.63;10373787;28;97181;-80
2024/01/09 13:53:46;;;;;;;3.22;2.30;;;;;;;8.97;79.10;100569.22;10373822;28;96735;-80
2024/01/09 13:58:51;;;;;;;5.27;2.90;;;;;;;8.97;79.30;100563.97;10373944;28;96803;-79
2024/01/09 14:03:55;;;;;;;3.95;2.72;;;;;;;9.05;79.03;100569.03;10373749;28;96649;-80
2024/01/09 14:08:58;;;;;;;5.47;3.20;;;;;;;9.05;79.01;100561.16;10373706;28;96752;-79
2024/01/09 14:14:03;;;;;;;4.50;2.90;;;;;;;9.17;78.65;100552.03;10372440;28;96920;-80
2024/01/09 14:19:08;;;;;;;3.80;2.53;;;;;;;9.25;78.92;100552.69;10372527;28;97343;-80
2024/01/09 14:24:11;;;;;;;4.23;2.83;;;;;;;9.07;79.64;100540.94;10371801;28;96832;-80
2024/01/09 14:29:16;;;;;;;4.93;2.95;;;;;;;9.14;78.96;100551.22;10373321;28;96970;-80
2024/01/09 14:34:19;;;;;;;4.85;2.75;;;;;;;9.16;78.99;100548.53;10373142;28;96711;-80
2024/01/09 14:39:23;;;;;;;4.63;3.13;;;;;;;9.08;79.17;100550.53;10372448;28;97108;-80
2024/01/09 14:44:28;;;;;;;6.05;3.42;;;;;;;9.10;79.58;100551.38;10372095;28;97271;-80
2024/01/09 14:49:31;;;;;;;5.55;3.15;;;;;;;9.05;79.88;100572.47;10372116;28;96719;-80
2024/01/09 14:54:37;;;;;;;4.03;2.67;;;;;;;9.02;79.67;100567.31;10372323;28;96948;-80
2024/01/09 14:59:44;;;;;;;5.80;3.13;;;;;;;9.02;79.75;100575.19;10373216;28;96861;-80
2024/01/09 15:04:49;;;;;;;4.72;3.25;;;;;;;9.00;80.80;100576.13;10371462;28;96680;-80
2024/01/09 15:09:52;;;;;;;5.15;3.30;;;;;;;9.00;80.65;100568.25;10371405;28;96904;-80
2024/01/09 15:14:57;;;;;;;3.67;2.22;;;;;;;8.99;80.89;100579.69;10370314;28;96807;-79
2024/01/09 15:20:03;;;;;;;5.68;3.03;;;;;;;8.92;81.59;100579.00;10371125;28;97067;-80
2024/01/09 15:25:08;;;;;;;5.10;2.83;;;;;;;8.86;82.14;100581.78;10371373;28;97472;-80
2024/01/09 15:30:14;;;;;;;5.22;2.88;;;;;;;8.78;83.65;100578.50;10372786;28;96624;-80
2024/01/09 15:35:17;;;;;;;;;;;;;;;8.63;85.03;100578.94;10378763;28;97165;-81
2024/01/09 15:40:20;;;;;;;6.35;3.20;;;;;;;8.47;86.75;100563.63;10378716;28;97100;-82
2024/01/09 15:45:26;;;;;;;5.85;3.88;;;;;;;8.43;87.71;100585.59;10377149;28;96772;-82
2024/01/09 15:50:29;;;;;;;;;;;;;;;8.45;87.69;100608.25;10379066;28;96932;-81
2024/01/09 15:55:34;;;;;;;6.30;3.33;;;;;;;8.50;88.73;100644.81;10377735;28;96639;-82
2024/01/09 16:00:41;;;;;;;6.20;3.42;;;;;;;8.43;88.73;100630.19;10377607;28;96725;-79
2024/01/09 16:05:44;;;;;;;7.18;3.85;;;;;;;8.48;88.34;100621.25;10375712;28;96618;-80
2024/01/09 16:10:48;;;;;;;5.45;3.30;;;;;;;8.51;88.88;100626.47;10376864;28;96690;-80
2024/01/09 16:15:53;;;;;;;6.63;3.58;;;;;;;8.45;88.53;100623.97;10385803;22;98068;-80
2024/01/09 16:20:56;;;;;;;6.65;3.38;;;;;;;8.40;90.08;100615.38;10410096;28;97173;-80
2024/01/09 16:26:01;;;;;;;5.00;3.20;;;;;;;8.39;90.13;100591.81;10376002;28;96637;-81
2024/01/09 16:31:06;;;;;;;5.63;3.50;;;;;;;8.39;90.22;100582.19;10376036;28;97447;-81
2024/01/09 16:36:12;;;;;;;;;;;;;;;8.39;91.02;100600.53;10376457;28;96683;-83
2024/01/09 16:41:16;;;;;;;6.35;4.00;;;;;;;8.36;91.72;100618.94;10376378;28;96730;-80
2024/01/09 16:46:21;;;;;;;5.78;3.13;;;;;;;8.40;90.85;100645.97;10374711;28;98198;-82
2024/01/09 16:51:24;;;;;;;4.90;3.20;;;;;;;8.42;90.63;100644.16;10375020;28;96663;-80
2024/01/09 16:56:28;;;;;;;8.50;3.72;;;;;;;8.42;91.25;100628.44;10411454;28;97610;-82
2024/01/09 17:01:33;;;;;;;5.63;3.47;;;;;;;8.39;91.21;100624.16;10416765;28;97398;-81
2024/01/09 17:06:37;;;;;;;4.45;2.65;;;;;;;8.43;90.57;100607.41;10416697;28;96576;-81
2024/01/09 17:11:41;;;;;;;6.03;3.83;;;;;;;8.50;90.50;100606.34;10416374;28;96727;-83
2024/01/09 17:16:46;;;;;;;4.57;3.00;;;;;;;8.47;90.64;100597.72;10415592;28;97207;-83
2024/01/09 17:21:55;;;;;;;5.13;3.17;;;;;;;8.46;91.00;100603.88;10416584;28;96667;-82
2024/01/09 17:26:58;;;;;;;5.28;3.28;;;;;;;8.42;90.82;100602.22;10415766;28;96731;-82
2024/01/09 17:32:04;;;;;;;5.53;3.35;;;;;;;8.37;91.63;100609.34;10417537;28;97232;-82
2024/01/09 17:37:07;;;;;;;6.00;3.58;;;;;;;8.39;90.80;100611.03;10415813;28;96665;-82
2024/01/09 17:42:11;;;;;;;4.85;2.88;;;;;;;8.42;90.96;100615.31;10415526;28;96942;-81
2024/01/09 17:47:16;;;;;;;6.72;3.65;;;;;;;8.40;90.48;100614.50;10414119;28;96647;-81
2024/01/09 17:52:19;;;;;;;4.88;2.90;;;;;;;8.43;90.58;100628.38;10414105;27;96801;-82
2024/01/09 17:57:23;;;;;;;6.95;3.33;;;;;;;8.46;90.23;100630.09;10414644;28;96658;-82
2024/01/09 18:02:28;;;;;;;6.18;3.65;;;;;;;8.46;90.53;100636.22;10414729;28;97184;-82
2024/01/09 18:07:34;;;;;;;5.85;3.63;;;;;;;8.55;90.15;100650.84;10414314;27;96723;-82
2024/01/09 18:12:37;;;;;;;5.20;3.35;;;;;;;8.60;89.69;100660.28;10414569;28;96589;-82
2024/01/09 18:17:42;;;;;;;6.95;3.67;;;;;;;8.65;89.60;100650.53;10413597;28;97138;-83
2024/01/09 18:22:46;;;;;;;4.70;3.00;;;;;;;8.68;89.19;100647.88;10415230;28;96583;-81
2024/01/09 18:27:49;;;;;;;6.05;3.47;;;;;;;8.67;89.24;100642.66;10413843;28;97131;-83
2024/01/09 18:32:54;;;;;;;5.38;3.30;;;;;;;8.63;88.79;100635.75;10414086;28;97069;-83
2024/01/09 18:37:59;;;;;;;7.18;4.30;;;;;;;8.55;89.64;100637.72;10412403;28;96731;-83
2024/01/09 18:43:04;;;;;;;7.10;3.87;;;;;;;8.38;89.74;100625.03;10413894;28;96825;-82
2024/01/09 18:48:13;;;;;;;6.63;4.10;;;;;;;8.30;90.57;100616.50;10413102;28;97468;-82
2024/01/09 18:53:20;;;;;;;7.03;4.50;;;;;;;8.17;91.45;100619.47;10413592;28;96574;-81
2024/01/09 18:58:25;;;;;;;7.47;4.72;;;;;;;8.10;91.61;100617.88;10413538;28;96850;-81
2024/01/09 19:03:32;;;;;;;7.65;4.53;;;;;;;8.12;91.75;100616.09;10371164;28;96691;-81
2024/01/09 19:08:36;;;;;;;7.00;4.38;;;;;;;8.14;91.26;100619.50;10400946;27;97613;-81
2024/01/09 19:13:39;;;;;;;5.93;3.83;;;;;;;8.17;90.94;100622.91;10413313;28;96631;-81
2024/01/09 19:18:44;;;;;;;9.07;5.40;;;;;;;8.21;90.45;100639.44;10411905;28;97174;-81
2024/01/09 19:23:48;;;;;;;8.38;4.50;;;;;;;8.23;89.70;100646.38;10411688;28;97292;-80
2024/01/09 19:28:51;;;;;;;7.40;4.05;;;;;;;8.22;89.92;100639.41;10411446;28;97025;-81
2024/01/09 19:33:56;;;;;;;5.13;3.47;;;;;;;8.25;89.55;100641.09;10411974;28;96722;-80
2024/01/09 19:38:59;;;;;;;6.72;4.10;;;;;;;8.22;89.07;100647.25;10411930;28;96790;-81
2024/01/09 19:44:03;;;;;;;5.57;3.75;;;;;;;8.20;89.42;100661.31;10411764;28;96681;-80
2024/01/09 19:49:07;;;;;;;7.15;3.75;;;;;;;8.16;89.68;100655.28;10411315;28;96604;-81
2024/01/09 19:54:11;;;;;;;7.15;4.57;;;;;;;8.17;89.50;100654.38;10412021;28;97188;-80
2024/01/09 19:59:15;;;;;;;8.23;4.53;;;;;;;8.25;89.81;100646.34;10411575;28;97006;-80
2024/01/09 20:04:21;;;;;;;9.02;4.28;;;;;;;8.28;89.45;100651.50;10411889;28;96783;-80
2024/01/09 20:09:27;;;;;;;8.48;4.80;;;;;;;8.29;89.51;100648.84;10410887;28;96670;-80
2024/01/09 20:14:31;;;;;;;;;;;;;;;8.32;89.88;100650.53;10411816;27;96906;-80
2024/01/09 20:19:41;;;;;;;8.23;4.38;;;;;;;8.29;89.43;100656.72;10416800;28;96612;-80
2024/01/09 20:24:45;;;;;;;6.38;4.43;;;;;;;8.29;89.71;100666.34;10417628;28;96799;-80
2024/01/09 20:29:49;;;;;;;8.00;4.30;;;;;;;8.28;89.08;100643.63;10417664;28;97401;-81
2024/01/09 20:34:54;;;;;;;7.03;5.05;;;;;;;8.26;89.98;100627.94;10417799;28;96726;-81
2024/01/09 20:39:57;;;;;;;9.10;4.38;;;;;;;8.22;89.84;100642.03;10417849;28;96674;-80
2024/01/09 20:45:00;;;;;;;7.63;4.15;;;;;;;8.21;89.80;100658.66;10416986;28;96729;-81
2024/01/09 20:50:06;;;;;;;8.70;4.93;;;;;;;8.24;89.87;100668.22;10416939;28;96694;-80
2024/01/09 20:55:10;;;;;;;9.15;4.82;;;;;;;8.25;89.60;100690.91;10417794;28;97084;-80
2024/01/09 21:00:14;;;;;;;8.40;4.70;;;;;;;8.23;89.67;100663.88;10416918;28;96760;-80
2024/01/09 21:05:19;;;;;;;8.18;5.00;;;;;;;8.31;89.52;100675.00;10416513;28;96700;-79
2024/01/09 21:10:22;;;;;;;6.93;4.25;;;;;;;8.33;89.02;100679.34;10415361;28;96700;-81
2024/01/09 21:15:26;;;;;;;7.22;4.50;;;;;;;8.44;89.25;100693.06;10415785;27;97206;-79
2024/01/09 21:20:31;;;;;;;7.45;4.28;;;;;;;8.49;89.01;100682.44;10416214;28;96733;-80
2024/01/09 21:25:37;;;;;;;9.45;4.80;;;;;;;8.49;88.37;100698.19;10416280;28;96646;-80
2024/01/09 21:30:40;;;;;;;8.30;4.95;;;;;;;8.51;89.14;100692.03;10414418;27;97607;-79
2024/01/09 21:35:46;;;;;;;7.82;4.38;;;;;;;8.59;88.40;100691.81;10415692;28;96713;-80
2024/01/09 21:40:50;;;;;;;8.07;4.13;;;;;;;8.55;89.28;100684.94;10415262;28;96832;-79
2024/01/09 21:46:01;;;;;;;5.55;4.05;;;;;;;8.59;88.96;100689.19;10415955;28;96624;-79
2024/01/09 21:51:06;;;;;;;7.88;4.38;;;;;;;8.60;88.87;100686.53;10415269;28;96688;-80
2024/01/09 21:56:09;;;;;;;;;;;;;;;8.53;89.06;100686.75;10415309;28;97203;-80
2024/01/09 22:01:12;;;;;;;7.70;4.28;;;;;;;8.50;88.43;100681.53;10414126;28;96751;-80
2024/01/09 22:06:17;;;;;;;7.25;4.72;;;;;;;8.49;89.04;100685.06;10414666;28;96751;-80
2024/01/09 22:11:21;;;;;;;5.47;3.88;;;;;;;8.50;88.60;100682.41;10414434;28;97216;-80
2024/01/09 22:16:25;;;;;;;9.40;4.90;;;;;;;8.57;88.93;100684.00;10414482;28;96839;-79
2024/01/09 22:21:31;;;;;;;6.47;3.70;;;;;;;8.59;88.71;100690.06;10414431;28;97345;-79
2024/01/09 22:26:34;;;;;;;7.18;3.63;;;;;;;8.60;88.21;100691.78;10413417;28;96780;-80
2024/01/09 22:31:38;;;;;;;6.47;3.55;;;;;;;8.66;88.51;100704.75;10414168;28;97093;-80
2024/01/09 22:36:43;;;;;;;6.50;4.30;;;;;;;8.68;88.17;100704.72;10414535;28;96801;-79
2024/01/09 22:41:47;;;;;;;7.18;4.13;;;;;;;8.73;87.57;100711.56;10413043;27;96629;-79
2024/01/09 22:46:51;;;;;;;5.77;3.70;;;;;;;8.74;87.47;100713.28;10413403;28;97287;-79
2024/01/09 22:51:56;;;;;;;5.68;3.22;;;;;;;8.74;87.77;100718.53;10412556;28;97114;-80
2024/01/09 22:56:59;;;;;;;7.22;3.40;;;;;;;8.76;87.72;100721.97;10413117;28;96948;-79
2024/01/09 23:02:02;;;;;;;6.68;3.50;;;;;;;8.77;87.64;100710.59;10413096;28;96769;-79
2024/01/09 23:07:07;;;;;;;5.22;2.97;;;;;;;8.75;87.51;100715.03;10412857;28;97083;-79
2024/01/09 23:12:11;;;;;;;8.40;3.83;;;;;;;8.73;87.92;100713.31;10412664;28;97231;-79
2024/01/09 23:17:14;;;;;;;6.65;4.28;;;;;;;8.71;88.04;100702.00;10412001;28;96786;-79
2024/01/09 23:22:23;;;;;;;5.85;3.60;;;;;;;8.72;87.44;100709.84;10412536;28;96652;-79
2024/01/09 23:27:27;;;;;;;7.40;3.55;;;;;;;8.67;87.98;100716.97;10413050;28;96912;-80
2024/01/09 23:32:30;;;;;;;8.23;4.65;;;;;;;8.73;87.52;100713.31;10412309;28;96690;-80
2024/01/09 23:37:36;;;;;;;6.55;3.67;;;;;;;8.65;87.81;100708.25;10412260;28;97059;-80
2024/01/09 23:42:41;;;;;;;8.73;4.45;;;;;;;8.68;87.38;100708.22;10410887;28;96663;-80
2024/01/09 23:47:44;;;;;;;7.10;4.17;;;;;;;8.69;87.36;100699.41;10411901;28;96677;-79
2024/01/09 23:52:49;;;;;;;7.97;3.90;;;;;;;8.70;88.01;100716.03;10415868;27;97134;-79
2024/01/09 23:57:53;;;;;;;6.40;4.10;;;;;;;8.72;87.82;100704.59;10419309;28;97028;-79
